ZLXY/XIY METAR and TAF weather

Enter ICAO airport designator
Station Type Date Time Source
ZLXY METAR 2022/06/28 10:00 UTC NOAA

ZLXY 281000Z 03005MPS 9999 FEW050 36/12 Q0999 NOSIG


Station Type Date Time Source
ZLXY Decoded METAR 2022/06/28 10:00 UTC NOAA

Xian/Xianyang, China (ZLXY) 34-26N 108-45E
Jun 28, 2022 - 06:00 AM EDT / 2022.06.28 1000 UTC
Wind: from the NNE (030 degrees) at 11 MPH (10 KT):0
Visibility: greater than 7 mile(s):0
Sky conditions: mostly clear
Temperature: 96 F (36 C)
Dew Point: 53 F (12 C)
Relative Humidity: 23%
Pressure (altimeter): 29.50 in. Hg (0999 hPa)
ob: ZLXY 281000Z 03005MPS 9999 FEW050 36/12 Q0999 NOSIG
cycle: 10

Station Type Date Time Source
ZLXY TAF 2022/06/28 12:03 UTC NOAA

TAF ZLXY 280908Z 2812/2912 30004MPS 3000 HZ NSC TX37/2907Z TN22/2821Z

Example: see airport list